Time;durP1;ratioP1;P1;durP2;ratioP2;P2;SDS_P1;SDS_P2;PMS_P1;PMS_P2;Temp;Humidity;BMP_temperature;BMP_pressure;BME280_temperature;BME280_humidity;BME280_pressure;Samples;Min_cycle;Max_cycle;Signal;HPM_P1;HPM_P2
2023/03/08 00:01:40;;;;;;;6.65;2.20;;;3.10;98.10;;;;;;5078384;28;20032;-65
2023/03/08 00:04:06;;;;;;;4.38;1.75;;;3.10;98.10;;;;;;5078931;28;20044;-65
2023/03/08 00:06:32;;;;;;;6.60;1.95;;;3.10;97.90;;;;;;5079916;28;20123;-65
2023/03/08 00:09:00;;;;;;;2.35;1.80;;;3.10;98.10;;;;;;5074214;28;20074;-65
2023/03/08 00:11:27;;;;;;;2.63;1.45;;;3.10;98.20;;;;;;5074673;28;20020;-65
2023/03/08 00:13:54;;;;;;;3.78;1.83;;;3.10;98.20;;;;;;5077183;28;20031;-64
2023/03/08 00:16:20;;;;;;;3.80;2.05;;;3.00;98.20;;;;;;5080541;28;20598;-64
2023/03/08 00:18:46;;;;;;;3.83;1.98;;;3.00;98.10;;;;;;5078807;28;20144;-64
2023/03/08 00:21:15;;;;;;;2.10;1.60;;;3.00;98.20;;;;;;5079110;28;20476;-64
2023/03/08 00:23:42;;;;;;;3.95;1.63;;;3.00;98.30;;;;;;5072984;28;20035;-64
2023/03/08 00:26:09;;;;;;;6.00;2.70;;;2.90;98.30;;;;;;5083036;28;20036;-64
2023/03/08 00:28:35;;;;;;;4.80;2.17;;;2.80;98.50;;;;;;5073561;28;20159;-64
2023/03/08 00:31:06;;;;;;;4.28;2.20;;;2.80;98.50;;;;;;5083188;28;20111;-63
2023/03/08 00:33:32;;;;;;;4.20;1.98;;;2.70;98.60;;;;;;5079721;28;20057;-64
2023/03/08 00:36:04;;;;;;;5.63;2.25;;;2.70;98.70;;;;;;5082779;28;20024;-63
2023/03/08 00:38:31;;;;;;;4.55;2.25;;;2.60;98.80;;;;;;5080192;28;20032;-64
2023/03/08 00:40:58;;;;;;;4.55;2.00;;;2.60;98.90;;;;;;5075251;28;20047;-64
2023/03/08 00:43:25;;;;;;;4.22;2.17;;;2.70;98.90;;;;;;5069205;28;20813;-64
2023/03/08 00:45:50;;;;;;;4.38;2.20;;;2.60;98.80;;;;;;5085294;28;20103;-63
2023/03/08 00:48:16;;;;;;;3.92;2.25;;;2.60;98.90;;;;;;5080358;28;20270;-64
2023/03/08 00:50:42;;;;;;;4.97;2.40;;;2.60;99.00;;;;;;5085764;28;20055;-63
2023/03/08 00:53:08;;;;;;;5.72;2.83;;;2.60;99.00;;;;;;5082620;28;20031;-63
2023/03/08 00:55:34;;;;;;;8.38;2.92;;;2.50;99.10;;;;;;5085661;28;20032;-63
2023/03/08 00:58:00;;;;;;;8.68;3.28;;;2.50;99.10;;;;;;5073469;28;20703;-64
2023/03/08 01:00:27;;;;;;;5.63;2.70;;;2.50;99.20;;;;;;5082221;28;20042;-63
2023/03/08 01:02:54;;;;;;;8.30;3.30;;;2.40;99.30;;;;;;5088931;28;20024;-64
2023/03/08 01:05:19;;;;;;;7.68;3.78;;;2.50;99.40;;;;;;5083284;28;20044;-65
2023/03/08 01:07:45;;;;;;;7.85;3.47;;;2.40;99.40;;;;;;5078225;28;20146;-64
2023/03/08 01:10:11;;;;;;;9.70;3.55;;;2.30;99.50;;;;;;5085368;28;20561;-65
2023/03/08 01:12:38;;;;;;;8.60;3.92;;;2.40;99.60;;;;;;5081626;28;20039;-63
2023/03/08 01:15:04;;;;;;;9.50;3.45;;;2.30;99.70;;;;;;5079559;28;20040;-64
2023/03/08 01:17:32;;;;;;;9.43;4.05;;;2.30;99.80;;;;;;5077934;28;20032;-63
2023/03/08 01:19:58;;;;;;;9.30;4.22;;;2.40;99.90;;;;;;5081538;28;20032;-64
2023/03/08 01:22:24;;;;;;;6.82;3.55;;;2.30;99.80;;;;;;5074715;28;20035;-63
2023/03/08 01:24:50;;;;;;;5.68;3.58;;;2.30;99.80;;;;;;5082058;28;20052;-63
2023/03/08 01:27:16;;;;;;;7.65;3.90;;;2.30;99.90;;;;;;5082251;28;20051;-64
2023/03/08 01:29:42;;;;;;;6.13;3.60;;;2.30;99.90;;;;;;5074477;28;20032;-64
2023/03/08 01:32:09;;;;;;;9.98;4.07;;;2.30;99.90;;;;;;5083972;28;20877;-63
2023/03/08 01:34:35;;;;;;;6.72;3.92;;;2.30;99.90;;;;;;5079524;28;20067;-64
2023/03/08 01:37:01;;;;;;;8.05;4.15;;;2.30;99.90;;;;;;5082752;28;20415;-63
2023/03/08 01:39:27;;;;;;;8.13;4.28;;;2.30;99.90;;;;;;5083165;28;20051;-64
2023/03/08 01:41:53;;;;;;;7.35;3.95;;;2.30;99.90;;;;;;5077810;28;20040;-64
2023/03/08 01:44:21;;;;;;;11.63;4.40;;;2.30;99.90;;;;;;5085075;28;20130;-64
2023/03/08 01:46:49;;;;;;;12.00;4.10;;;2.30;99.90;;;;;;5082037;28;20063;-65
2023/03/08 01:49:27;;;;;;;6.90;4.05;;;2.30;99.90;;;;;;5068404;28;20059;-66
2023/03/08 01:51:57;;;;;;;9.35;4.07;;;2.30;99.90;;;;;;5086244;28;20169;-66
2023/03/08 01:54:27;;;;;;;6.22;4.07;;;2.30;99.90;;;;;;5083907;28;20020;-65
2023/03/08 01:56:58;;;;;;;10.27;4.65;;;2.30;99.90;;;;;;5078049;28;20051;-67
2023/03/08 01:59:25;;;;;;;9.52;4.15;;;2.30;99.90;;;;;;5081504;28;20040;-66
2023/03/08 02:01:51;;;;;;;9.05;4.13;;;2.30;99.90;;;;;;5075714;28;20032;-65
2023/03/08 02:04:18;;;;;;;8.23;3.75;;;2.30;99.90;;;;;;5088005;28;20028;-64
2023/03/08 02:06:45;;;;;;;6.30;3.90;;;2.30;99.90;;;;;;5077822;28;20073;-64
2023/03/08 02:09:12;;;;;;;13.50;5.22;;;2.30;99.90;;;;;;5083463;28;20477;-65
2023/03/08 02:11:39;;;;;;;8.13;4.93;;;2.30;99.90;;;;;;5081700;28;20110;-65
2023/03/08 02:14:05;;;;;;;11.38;6.10;;;2.30;99.90;;;;;;5081413;28;20527;-64
2023/03/08 02:16:32;;;;;;;12.38;4.72;;;2.30;99.90;;;;;;5079487;28;20063;-64
2023/03/08 02:19:02;;;;;;;10.95;5.35;;;2.30;99.90;;;;;;5087816;28;20043;-63
2023/03/08 02:21:30;;;;;;;8.65;4.47;;;2.30;99.90;;;;;;5082261;28;20036;-63
2023/03/08 02:24:05;;;;;;;9.93;4.85;;;2.30;99.90;;;;;;5082194;28;20039;-64
2023/03/08 02:26:33;;;;;;;8.18;4.53;;;2.20;99.90;;;;;;5081466;28;20034;-64
2023/03/08 02:28:59;;;;;;;7.28;3.95;;;2.30;99.90;;;;;;5083812;28;20033;-63
2023/03/08 02:31:25;;;;;;;11.07;4.90;;;2.20;99.90;;;;;;5085564;28;20839;-65
2023/03/08 02:33:51;;;;;;;11.07;5.10;;;2.20;99.90;;;;;;5081399;28;20032;-64
2023/03/08 02:36:17;;;;;;;11.23;5.32;;;2.20;99.90;;;;;;5078902;28;20081;-64
2023/03/08 02:38:42;;;;;;;7.05;4.53;;;2.20;99.90;;;;;;5077993;28;20081;-65
2023/03/08 02:41:08;;;;;;;9.50;4.53;;;2.20;99.90;;;;;;5080747;28;20046;-64
2023/03/08 02:43:35;;;;;;;7.07;4.65;;;2.20;99.90;;;;;;5080638;28;20020;-65
2023/03/08 02:46:01;;;;;;;7.60;4.38;;;2.20;99.90;;;;;;5074555;28;20791;-65
2023/03/08 02:48:26;;;;;;;7.68;4.63;;;2.20;99.80;;;;;;5080150;28;20032;-65
2023/03/08 02:50:52;;;;;;;7.07;4.00;;;2.20;99.60;;;;;;5076387;28;20024;-65
2023/03/08 02:53:18;;;;;;;9.48;4.30;;;2.20;99.70;;;;;;5072225;28;20859;-65
2023/03/08 02:55:44;;;;;;;7.40;4.68;;;2.10;99.70;;;;;;5072698;28;20645;-65
2023/03/08 02:58:11;;;;;;;7.30;4.05;;;2.20;99.80;;;;;;5079889;28;20047;-65
2023/03/08 03:00:37;;;;;;;7.53;4.35;;;2.10;99.70;;;;;;5075957;28;20553;-65
2023/03/08 03:03:03;;;;;;;10.43;4.68;;;2.10;99.70;;;;;;5074558;28;20024;-65
2023/03/08 03:05:29;;;;;;;4.75;3.65;;;2.10;99.70;;;;;;5076453;28;20036;-65
2023/03/08 03:07:58;;;;;;;9.70;4.15;;;2.10;99.80;;;;;;5083913;28;20034;-65
2023/03/08 03:10:25;;;;;;;8.02;4.38;;;2.10;99.80;;;;;;5066539;28;20031;-65
2023/03/08 03:12:51;;;;;;;7.05;4.07;;;2.10;99.90;;;;;;5073485;28;20096;-65
2023/03/08 03:15:20;;;;;;;13.88;4.38;;;2.10;99.70;;;;;;5070826;28;20028;-65
2023/03/08 03:17:50;;;;;;;11.07;4.45;;;2.10;99.70;;;;;;5073191;28;20093;-65
2023/03/08 03:20:16;;;;;;;10.50;4.25;;;2.00;99.50;;;;;;5081145;28;20032;-65
2023/03/08 03:22:41;;;;;;;7.43;4.13;;;2.00;99.60;;;;;;5076721;28;20040;-65
2023/03/08 03:25:08;;;;;;;9.45;4.82;;;2.00;99.70;;;;;;5070545;28;20032;-65
2023/03/08 03:27:33;;;;;;;9.23;4.28;;;2.00;99.70;;;;;;5070701;28;20534;-65
2023/03/08 03:29:59;;;;;;;6.45;3.92;;;2.00;99.70;;;;;;5064740;28;20207;-65
2023/03/08 03:32:26;;;;;;;7.35;3.88;;;2.00;99.60;;;;;;5078949;28;20118;-65
2023/03/08 03:34:53;;;;;;;8.60;4.07;;;2.00;99.60;;;;;;5072144;28;20023;-65
2023/03/08 03:37:20;;;;;;;5.68;4.07;;;2.00;99.60;;;;;;5078295;28;20736;-65
2023/03/08 03:39:46;;;;;;;9.90;4.85;;;2.00;99.50;;;;;;5073579;28;20028;-64
2023/03/08 03:42:14;;;;;;;6.05;3.50;;;2.00;99.40;;;;;;5074400;28;20135;-65
2023/03/08 03:44:47;;;;;;;8.05;3.72;;;2.00;99.40;;;;;;5074887;28;20030;-65
2023/03/08 03:47:17;;;;;;;11.20;4.70;;;2.00;99.50;;;;;;5069419;28;20043;-65
2023/03/08 03:49:44;;;;;;;7.50;4.30;;;1.90;99.40;;;;;;5078407;28;20407;-65
2023/03/08 03:52:11;;;;;;;5.78;3.88;;;1.90;99.50;;;;;;5070126;28;20027;-65
2023/03/08 03:54:42;;;;;;;8.48;4.03;;;1.90;99.40;;;;;;5079715;28;20799;-65
2023/03/08 03:57:08;;;;;;;4.60;3.33;;;1.90;99.50;;;;;;5081958;28;20111;-65
2023/03/08 03:59:38;;;;;;;6.35;3.58;;;1.90;99.40;;;;;;5074086;28;20042;-65
2023/03/08 04:02:04;;;;;;;5.95;3.83;;;1.80;99.40;;;;;;5074758;28;20040;-64
2023/03/08 04:04:35;;;;;;;5.82;3.70;;;1.80;99.30;;;;;;5069111;28;20067;-64
2023/03/08 04:07:02;;;;;;;8.70;4.13;;;1.80;99.20;;;;;;5081101;28;21104;-64
2023/03/08 04:09:34;;;;;;;6.18;4.10;;;1.80;99.20;;;;;;5073906;28;20040;-65
2023/03/08 04:12:10;;;;;;;5.43;3.67;;;1.80;99.10;;;;;;5076808;28;20020;-64
2023/03/08 04:14:39;;;;;;;7.68;3.72;;;1.70;99.20;;;;;;5073524;28;20039;-65
2023/03/08 04:17:05;;;;;;;11.40;4.65;;;1.70;99.30;;;;;;5069811;28;20075;-64
2023/03/08 04:19:38;;;;;;;6.85;4.28;;;1.70;99.30;;;;;;5070952;28;20652;-64
2023/03/08 04:22:05;;;;;;;6.05;4.10;;;1.70;99.20;;;;;;5083112;28;20185;-65
2023/03/08 04:24:37;;;;;;;6.97;4.53;;;1.70;99.00;;;;;;5077474;28;20135;-65
2023/03/08 04:27:09;;;;;;;6.22;4.25;;;1.70;98.80;;;;;;5082921;28;20072;-65
2023/03/08 04:29:35;;;;;;;5.90;3.63;;;1.70;98.90;;;;;;5072738;28;20036;-65
2023/03/08 04:32:01;;;;;;;6.68;4.05;;;1.70;99.00;;;;;;5080848;28;20434;-64
2023/03/08 04:34:37;;;;;;;6.78;4.22;;;1.60;99.00;;;;;;5079240;28;20020;-65
2023/03/08 04:37:03;;;;;;;8.45;4.43;;;1.60;99.00;;;;;;5071493;28;20055;-65
2023/03/08 04:39:29;;;;;;;5.30;3.90;;;1.60;99.00;;;;;;5073691;28;20124;-65
2023/03/08 04:41:55;;;;;;;6.32;4.53;;;1.50;99.20;;;;;;5080774;28;20820;-65
2023/03/08 04:44:25;;;;;;;8.43;4.95;;;1.50;99.30;;;;;;5077321;28;20032;-65
2023/03/08 04:46:52;;;;;;;8.50;4.53;;;1.60;99.20;;;;;;5077502;28;20032;-65
2023/03/08 04:49:31;;;;;;;6.82;4.30;;;1.50;99.30;;;;;;5077742;28;20032;-65
2023/03/08 04:52:00;;;;;;;9.52;4.78;;;1.60;99.40;;;;;;5074147;28;20024;-66
2023/03/08 04:54:27;;;;;;;12.68;4.72;;;1.70;99.40;;;;;;5069942;28;20057;-65
2023/03/08 04:57:00;;;;;;;10.88;4.85;;;1.70;99.20;;;;;;5089602;28;20048;-66
2023/03/08 04:59:26;;;;;;;11.77;4.15;;;1.80;98.90;;;;;;5085614;28;20059;-64
2023/03/08 05:01:54;;;;;;;7.60;4.88;;;1.90;98.80;;;;;;5077704;28;20036;-65
2023/03/08 05:04:21;;;;;;;7.50;4.45;;;1.90;98.80;;;;;;5071807;28;20530;-65
2023/03/08 05:06:47;;;;;;;7.28;4.47;;;1.90;98.60;;;;;;5082109;28;20032;-66
2023/03/08 05:09:18;;;;;;;8.77;4.28;;;1.80;98.60;;;;;;5075803;28;20027;-65
2023/03/08 05:11:47;;;;;;;7.55;4.72;;;1.80;98.60;;;;;;5081008;28;20838;-66
2023/03/08 05:14:14;;;;;;;7.47;4.95;;;1.80;98.60;;;;;;5076352;28;20767;-66
2023/03/08 05:16:40;;;;;;;6.97;4.13;;;1.70;98.70;;;;;;5075639;28;20024;-65
2023/03/08 05:19:06;;;;;;;5.47;3.85;;;1.70;98.70;;;;;;5076591;28;20028;-66
2023/03/08 05:21:37;;;;;;;9.00;4.38;;;1.60;98.80;;;;;;5079399;28;20070;-65
2023/03/08 05:24:02;;;;;;;11.75;5.32;;;1.60;98.70;;;;;;5075119;28;20036;-66
2023/03/08 05:26:32;;;;;;;6.82;4.15;;;1.50;98.70;;;;;;5080595;28;20028;-66
2023/03/08 05:29:02;;;;;;;8.90;4.38;;;1.50;98.80;;;;;;5081074;28;20070;-66
2023/03/08 05:31:29;;;;;;;6.75;3.78;;;1.50;99.00;;;;;;5076138;28;20023;-65
2023/03/08 05:33:57;;;;;;;8.23;5.10;;;1.40;99.20;;;;;;5072897;28;20032;-66
2023/03/08 05:36:33;;;;;;;;;;;1.40;99.50;;;;;;5080290;28;20475;-66
2023/03/08 05:38:59;;;;;;;6.47;4.30;;;1.40;99.30;;;;;;5074846;28;19967;-65
2023/03/08 05:41:35;;;;;;;6.22;4.43;;;1.40;99.10;;;;;;5071494;28;20067;-65
2023/03/08 05:44:01;;;;;;;8.90;4.82;;;1.40;99.20;;;;;;5076134;28;20507;-66
2023/03/08 05:46:30;;;;;;;7.70;4.70;;;1.40;99.40;;;;;;5078417;28;20031;-65
2023/03/08 05:48:57;;;;;;;7.45;4.72;;;1.40;99.40;;;;;;5067992;28;20060;-66
2023/03/08 05:51:23;;;;;;;8.77;4.57;;;1.30;99.50;;;;;;5081769;28;20024;-65
2023/03/08 05:53:49;;;;;;;8.38;4.07;;;1.40;99.50;;;;;;5073071;28;20567;-66
2023/03/08 05:56:21;;;;;;;6.20;4.75;;;1.40;99.40;;;;;;5081617;28;20035;-65
2023/03/08 05:59:00;;;;;;;10.55;5.72;;;1.40;99.60;;;;;;5075039;28;20055;-65
2023/03/08 06:01:28;;;;;;;7.88;4.78;;;1.50;99.50;;;;;;5074628;28;20032;-65
2023/03/08 06:03:59;;;;;;;10.38;5.10;;;1.50;99.30;;;;;;5070679;28;20073;-66
2023/03/08 06:06:29;;;;;;;10.40;5.35;;;1.60;99.30;;;;;;5072617;28;20036;-66
2023/03/08 06:08:58;;;;;;;13.70;7.15;;;1.60;99.20;;;;;;5074281;28;20041;-66
2023/03/08 06:11:25;;;;;;;6.60;4.03;;;1.60;99.40;;;;;;5077564;28;20941;-65
2023/03/08 06:13:54;;;;;;;9.00;4.65;;;1.60;99.60;;;;;;5077768;28;20079;-66
2023/03/08 06:16:22;;;;;;;11.05;5.03;;;1.60;99.70;;;;;;5072186;28;20020;-66
2023/03/08 06:18:48;;;;;;;6.93;4.10;;;1.70;99.50;;;;;;5080637;28;20042;-65
2023/03/08 06:21:17;;;;;;;7.72;4.53;;;1.70;99.40;;;;;;5076243;28;20096;-65
2023/03/08 06:23:46;;;;;;;7.13;3.97;;;1.80;99.50;;;;;;5074711;28;20028;-66
2023/03/08 06:26:14;;;;;;;8.73;4.65;;;1.80;99.40;;;;;;5071152;28;20078;-66
2023/03/08 06:28:41;;;;;;;7.68;4.10;;;1.80;99.50;;;;;;5071178;28;20043;-65
2023/03/08 06:31:15;;;;;;;15.68;6.28;;;1.80;99.60;;;;;;5074782;28;20035;-65
2023/03/08 06:33:41;;;;;;;7.57;4.65;;;1.90;99.50;;;;;;5067685;28;21006;-66
2023/03/08 06:36:13;;;;;;;9.85;4.78;;;1.90;99.50;;;;;;5060628;28;20020;-65
2023/03/08 06:38:40;;;;;;;12.70;4.97;;;2.00;99.30;;;;;;5079407;28;20028;-66
2023/03/08 06:41:07;;;;;;;8.73;5.07;;;2.00;99.30;;;;;;5076096;28;20055;-66
2023/03/08 06:43:34;;;;;;;8.07;4.80;;;2.10;99.30;;;;;;5071754;28;20151;-66
2023/03/08 06:46:12;;;;;;;8.57;4.85;;;2.10;99.00;;;;;;5070717;28;20028;-66
2023/03/08 06:48:38;;;;;;;10.60;4.70;;;2.10;99.00;;;;;;5070423;28;20055;-65
2023/03/08 06:51:05;;;;;;;9.10;5.03;;;2.20;98.70;;;;;;5067191;28;20055;-67
2023/03/08 06:53:32;;;;;;;7.45;4.82;;;2.20;98.50;;;;;;5080238;28;20034;-65
2023/03/08 06:56:02;;;;;;;10.75;5.18;;;2.30;98.50;;;;;;5078478;28;20024;-65
2023/03/08 06:58:31;;;;;;;7.72;4.97;;;2.30;98.60;;;;;;5072729;28;20105;-65
2023/03/08 07:01:03;;;;;;;10.65;4.93;;;2.40;98.60;;;;;;5075129;28;20040;-65
2023/03/08 07:03:29;;;;;;;10.65;5.97;;;2.50;98.40;;;;;;5076460;28;20117;-65
2023/03/08 07:06:04;;;;;;;11.77;6.03;;;2.60;98.40;;;;;;5074249;28;20032;-65
2023/03/08 07:08:30;;;;;;;9.68;4.97;;;2.60;97.80;;;;;;5074127;28;20418;-65
2023/03/08 07:10:57;;;;;;;9.50;5.30;;;2.60;98.00;;;;;;5076423;28;20013;-63
2023/03/08 07:13:23;;;;;;;9.43;5.43;;;2.70;98.10;;;;;;5068365;28;20052;-65
2023/03/08 07:15:50;;;;;;;17.80;7.75;;;2.80;98.10;;;;;;5068512;28;20566;-65
2023/03/08 07:18:16;;;;;;;11.27;7.10;;;2.90;98.00;;;;;;5075503;28;20054;-65
2023/03/08 07:20:42;;;;;;;44.42;28.42;;;2.90;97.90;;;;;;5073778;28;20496;-65
2023/03/08 07:23:08;;;;;;;18.83;10.88;;;2.90;98.20;;;;;;5072967;28;20035;-65
2023/03/08 07:25:33;;;;;;;21.30;11.75;;;2.90;98.40;;;;;;5075516;28;20669;-65
2023/03/08 07:27:59;;;;;;;15.43;7.97;;;2.90;98.50;;;;;;5073622;28;20058;-65
2023/03/08 07:30:25;;;;;;;12.50;5.97;;;2.80;98.60;;;;;;5076943;28;20032;-65
2023/03/08 07:32:53;;;;;;;11.07;6.63;;;2.80;99.00;;;;;;5068537;28;20028;-65
2023/03/08 07:35:18;;;;;;;11.18;6.68;;;2.80;99.30;;;;;;5061610;28;20127;-65
2023/03/08 07:37:45;;;;;;;10.38;6.57;;;2.80;99.20;;;;;;5071348;28;20028;-65
2023/03/08 07:40:15;;;;;;;12.35;6.85;;;2.80;99.20;;;;;;5074244;28;20058;-65
2023/03/08 07:42:41;;;;;;;15.40;10.05;;;3.10;98.90;;;;;;5069462;28;20032;-64
2023/03/08 07:45:33;;;;;;;8.85;5.43;;;3.50;98.20;;;;;;5071658;28;20135;-64
2023/03/08 07:47:59;;;;;;;10.90;5.93;;;4.00;96.90;;;;;;5076217;28;20042;-64
2023/03/08 07:50:26;;;;;;;12.93;6.05;;;4.30;96.00;;;;;;5072814;28;20775;-64
2023/03/08 07:52:52;;;;;;;11.05;5.57;;;4.70;95.00;;;;;;5074916;28;20517;-64
2023/03/08 07:55:20;;;;;;;7.68;5.43;;;4.90;94.30;;;;;;5069452;28;20020;-64
2023/03/08 07:57:46;;;;;;;9.68;5.47;;;5.20;93.40;;;;;;5076581;28;20528;-64
2023/03/08 08:00:12;;;;;;;8.88;4.72;;;5.20;92.80;;;;;;5064905;28;20035;-64
2023/03/08 08:02:37;;;;;;;9.73;4.90;;;5.20;92.70;;;;;;5077055;28;20039;-64
2023/03/08 08:05:04;;;;;;;8.60;4.88;;;5.30;92.90;;;;;;5079131;28;20040;-64
2023/03/08 08:07:31;;;;;;;10.07;4.97;;;5.30;92.80;;;;;;5071310;28;20050;-64
2023/03/08 08:09:56;;;;;;;8.98;5.00;;;5.40;92.50;;;;;;5070562;28;20035;-64
2023/03/08 08:12:22;;;;;;;7.68;4.72;;;5.40;92.40;;;;;;5072060;28;20499;-64
2023/03/08 08:14:51;;;;;;;9.32;5.28;;;5.50;92.60;;;;;;5074798;28;20051;-64
2023/03/08 08:17:18;;;;;;;8.60;4.88;;;5.60;92.20;;;;;;5070469;28;20028;-63
2023/03/08 08:19:44;;;;;;;7.45;4.70;;;5.60;92.00;;;;;;5067391;28;20031;-64
2023/03/08 08:22:09;;;;;;;7.15;4.50;;;5.60;91.80;;;;;;5065702;28;20187;-64
2023/03/08 08:24:35;;;;;;;7.65;4.50;;;5.50;91.60;;;;;;5073481;28;20849;-65
2023/03/08 08:27:01;;;;;;;8.68;4.45;;;5.40;92.00;;;;;;5061357;28;20033;-64
2023/03/08 08:29:27;;;;;;;8.77;4.80;;;5.30;92.50;;;;;;5079691;28;20086;-64
2023/03/08 08:31:54;;;;;;;5.63;4.22;;;5.30;92.60;;;;;;5073400;28;20044;-65
2023/03/08 08:34:20;;;;;;;9.90;5.30;;;5.50;92.70;;;;;;5073827;28;20051;-64
2023/03/08 08:36:46;;;;;;;8.88;5.30;;;5.50;92.10;;;;;;5075438;28;20028;-64
2023/03/08 08:39:11;;;;;;;9.13;5.00;;;5.50;92.00;;;;;;5074335;28;20484;-64
2023/03/08 08:41:37;;;;;;;7.18;4.65;;;5.50;92.00;;;;;;5068727;28;20029;-64
2023/03/08 08:44:03;;;;;;;9.90;4.85;;;5.60;92.00;;;;;;5075972;28;20039;-64
2023/03/08 08:46:32;;;;;;;7.75;4.22;;;5.60;91.80;;;;;;5073203;28;20069;-64
2023/03/08 08:48:59;;;;;;;6.30;4.00;;;5.60;91.20;;;;;;5072586;28;20067;-64
2023/03/08 08:51:25;;;;;;;6.07;4.30;;;5.60;91.40;;;;;;5066995;28;20039;-64
2023/03/08 08:53:52;;;;;;;7.97;4.18;;;5.70;91.50;;;;;;5078119;28;20034;-64
2023/03/08 08:56:25;;;;;;;6.10;4.22;;;5.80;90.90;;;;;;5075578;28;20048;-65
2023/03/08 08:58:51;;;;;;;6.60;3.75;;;6.10;90.80;;;;;;5085957;28;20365;-64
2023/03/08 09:01:21;;;;;;;5.85;3.67;;;6.10;90.20;;;;;;5081239;28;20042;-64
2023/03/08 09:03:48;;;;;;;5.15;4.13;;;6.00;90.10;;;;;;5082092;28;20046;-64
2023/03/08 09:06:16;;;;;;;6.95;4.45;;;6.10;90.30;;;;;;5080932;28;20543;-64
2023/03/08 09:08:42;;;;;;;5.40;3.50;;;6.10;90.00;;;;;;5081112;28;20032;-65
2023/03/08 09:11:09;;;;;;;7.78;4.22;;;6.00;88.10;;;;;;5087440;28;20459;-64
2023/03/08 09:13:41;;;;;;;5.82;3.65;;;6.00;88.30;;;;;;5085231;28;20044;-64
2023/03/08 09:16:20;;;;;;;5.88;4.10;;;6.10;88.50;;;;;;5079838;28;20032;-64
2023/03/08 09:18:46;;;;;;;5.93;4.43;;;6.10;87.20;;;;;;5078124;28;20077;-64
2023/03/08 09:21:13;;;;;;;6.30;3.70;;;6.10;89.30;;;;;;5071117;28;20020;-63
2023/03/08 09:23:39;;;;;;;5.93;3.60;;;6.00;86.90;;;;;;5083180;28;20035;-64
2023/03/08 09:26:05;;;;;;;4.53;3.17;;;6.20;86.20;;;;;;5075151;28;20105;-64
2023/03/08 09:28:32;;;;;;;5.45;3.30;;;6.50;86.00;;;;;;5080442;28;20495;-65
2023/03/08 09:30:58;;;;;;;5.05;3.20;;;6.60;85.90;;;;;;5071418;28;20024;-65
2023/03/08 09:33:24;;;;;;;9.30;3.60;;;6.60;84.00;;;;;;5082989;28;20029;-64
2023/03/08 09:35:59;;;;;;;5.85;3.15;;;6.90;84.20;;;;;;5068998;28;20467;-65
2023/03/08 09:38:25;;;;;;;7.55;4.30;;;7.20;82.80;;;;;;5074617;28;20347;-64
2023/03/08 09:41:13;;;;;;;5.10;3.63;;;7.40;84.00;;;;;;5075602;28;20768;-64
2023/03/08 09:44:08;;;;;;;5.15;3.60;;;7.60;81.10;;;;;;5079511;28;20020;-65
2023/03/08 09:46:45;;;;;;;6.18;2.97;;;7.90;79.10;;;;;;5076961;28;20537;-64
2023/03/08 09:49:13;;;;;;;;;;;8.10;77.90;;;;;;5075166;28;20035;-65
2023/03/08 09:51:42;;;;;;;3.47;2.33;;;8.20;74.70;;;;;;5081491;27;19914;-64
2023/03/08 09:54:14;;;;;;;5.13;2.85;;;8.00;75.40;;;;;;5070837;28;20900;-64
2023/03/08 09:56:45;;;;;;;3.90;2.53;;;7.90;74.40;;;;;;5073047;28;20458;-64
2023/03/08 09:59:19;;;;;;;9.20;3.42;;;8.00;74.70;;;;;;5069715;28;20520;-64
2023/03/08 10:02:15;;;;;;;5.05;2.75;;;8.40;74.10;;;;;;5083949;28;20028;-61
2023/03/08 10:04:53;;;;;;;4.05;3.13;;;9.10;72.20;;;;;;5076610;28;20253;-65
2023/03/08 10:07:39;;;;;;;4.22;2.92;;;9.80;71.00;;;;;;5069729;28;20908;-64
2023/03/08 10:10:15;;;;;;;8.38;5.55;;;10.30;68.10;;;;;;5081644;28;20063;-64
2023/03/08 10:12:51;;;;;;;7.38;3.53;;;10.30;67.40;;;;;;5071331;28;20027;-65
2023/03/08 10:15:21;;;;;;;3.90;2.85;;;10.00;66.20;;;;;;5076248;28;20035;-64
2023/03/08 10:17:52;;;;;;;7.80;2.90;;;10.00;66.70;;;;;;5068513;28;20408;-64
2023/03/08 10:20:28;;;;;;;3.55;2.92;;;10.00;65.60;;;;;;5068133;28;20047;-63
2023/03/08 10:23:07;;;;;;;4.22;2.45;;;9.80;64.10;;;;;;5064560;28;20020;-64
2023/03/08 10:25:33;;;;;;;6.57;2.60;;;9.60;65.30;;;;;;5076317;28;20613;-65
2023/03/08 10:28:02;;;;;;;5.00;2.70;;;9.40;65.80;;;;;;5073324;28;20036;-62
2023/03/08 10:30:34;;;;;;;2.75;2.35;;;9.20;67.90;;;;;;5079381;28;20023;-64
2023/03/08 10:33:04;;;;;;;3.10;2.40;;;8.70;68.00;;;;;;5080465;28;20036;-66
2023/03/08 10:35:33;;;;;;;3.03;2.55;;;8.50;67.80;;;;;;5072194;28;20467;-63
2023/03/08 10:37:59;;;;;;;7.72;2.30;;;8.30;68.20;;;;;;5078447;28;20035;-62
2023/03/08 10:40:25;;;;;;;3.55;2.50;;;8.20;67.00;;;;;;5077038;28;20066;-63
2023/03/08 10:42:59;;;;;;;7.93;2.33;;;8.00;68.50;;;;;;5079268;28;20136;-63
2023/03/08 10:45:28;;;;;;;2.47;1.98;;;8.00;69.50;;;;;;5075430;28;20105;-63
2023/03/08 10:48:02;;;;;;;2.58;1.95;;;8.00;68.40;;;;;;5070305;28;20028;-63
2023/03/08 10:50:34;;;;;;;3.00;1.92;;;8.00;69.00;;;;;;5069424;28;20089;-64
2023/03/08 10:53:18;;;;;;;3.33;2.15;;;8.00;67.20;;;;;;5078682;28;20050;-63
2023/03/08 10:55:49;;;;;;;7.05;2.50;;;8.00;69.40;;;;;;5073611;28;20039;-63
2023/03/08 10:58:41;;;;;;;4.70;2.50;;;7.90;69.90;;;;;;5082293;28;20035;-62
2023/03/08 11:01:27;;;;;;;10.82;3.50;;;7.90;69.70;;;;;;5072938;28;20086;-65
2023/03/08 11:04:14;;;;;;;3.92;2.63;;;8.00;70.90;;;;;;5078154;28;20118;-66
2023/03/08 11:06:40;;;;;;;2.90;2.53;;;7.90;68.20;;;;;;5068835;28;20035;-65
2023/03/08 11:09:29;;;;;;;4.50;2.40;;;7.70;66.00;;;;;;5077959;28;20461;-64
2023/03/08 11:11:59;;;;;;;4.85;2.67;;;7.60;69.60;;;;;;5075201;28;20024;-63
2023/03/08 11:14:27;;;;;;;4.13;2.38;;;7.40;68.60;;;;;;5077942;28;20036;-64
2023/03/08 11:17:14;;;;;;;4.32;2.75;;;7.40;70.40;;;;;;5071382;28;20094;-66
2023/03/08 11:19:58;;;;;;;4.95;2.47;;;7.40;69.30;;;;;;5075419;28;20039;-64
2023/03/08 11:23:02;;;;;;;5.50;3.08;;;7.30;69.00;;;;;;5070330;28;20478;-64
2023/03/08 11:25:42;;;;;;;6.47;2.97;;;7.10;70.60;;;;;;5075962;28;20028;-66
2023/03/08 11:28:39;;;;;;;3.85;2.83;;;6.80;69.80;;;;;;5070601;28;20036;-64
2023/03/08 11:31:17;;;;;;;6.00;2.65;;;6.80;71.50;;;;;;5076669;28;20038;-66
2023/03/08 11:34:01;;;;;;;3.65;2.40;;;6.80;70.40;;;;;;5076571;28;20070;-67
2023/03/08 11:36:30;;;;;;;3.35;2.50;;;6.90;69.30;;;;;;5077527;28;20386;-66
2023/03/08 11:39:18;;;;;;;3.30;2.40;;;7.00;68.70;;;;;;5072348;28;20036;-66
2023/03/08 11:41:52;;;;;;;3.40;2.40;;;7.00;67.60;;;;;;5066656;28;20041;-66
2023/03/08 11:44:39;;;;;;;4.32;2.90;;;6.90;68.40;;;;;;5076269;28;20055;-66
2023/03/08 11:47:37;;;;;;;4.05;2.95;;;6.90;69.70;;;;;;5074463;28;20971;-66
2023/03/08 11:50:18;;;;;;;4.32;3.08;;;6.90;70.90;;;;;;5082845;28;20031;-66
2023/03/08 11:53:20;;;;;;;3.55;2.55;;;7.00;71.30;;;;;;5067696;28;20032;-66
2023/03/08 11:56:01;;;;;;;5.95;2.90;;;6.80;70.60;;;;;;5041991;28;20058;-66
2023/03/08 11:58:31;;;;;;;3.60;2.55;;;6.80;70.80;;;;;;5075988;28;20137;-66
2023/03/08 12:01:02;;;;;;;4.57;2.85;;;6.80;70.40;;;;;;5072558;28;20036;-66
2023/03/08 12:03:33;;;;;;;6.72;3.35;;;6.90;71.80;;;;;;5067966;28;20500;-66
2023/03/08 12:06:11;;;;;;;4.28;2.67;;;6.80;73.20;;;;;;5080590;28;20126;-66
2023/03/08 12:08:47;;;;;;;8.20;3.15;;;7.00;72.00;;;;;;5071796;28;20089;-66
2023/03/08 12:11:32;;;;;;;4.75;2.83;;;7.00;71.10;;;;;;5077861;28;20062;-66
2023/03/08 12:14:16;;;;;;;4.90;2.83;;;7.10;69.60;;;;;;5079472;28;20188;-66
2023/03/08 12:17:16;;;;;;;5.40;3.13;;;7.10;70.30;;;;;;5071833;28;20157;-66
2023/03/08 12:19:47;;;;;;;6.32;2.90;;;7.10;71.30;;;;;;5078814;28;20051;-66
2023/03/08 12:22:38;;;;;;;4.57;2.47;;;6.80;71.00;;;;;;5067176;28;20549;-66
2023/03/08 12:25:24;;;;;;;7.40;3.78;;;6.80;72.10;;;;;;5073703;28;20781;-66
2023/03/08 12:28:19;;;;;;;5.47;2.45;;;6.70;71.90;;;;;;5073758;28;20535;-64
2023/03/08 12:31:09;;;;;;;4.13;2.88;;;6.80;71.90;;;;;;5072746;28;20446;-65
2023/03/08 12:33:35;;;;;;;6.43;2.60;;;6.80;72.20;;;;;;5070468;28;20032;-64
2023/03/08 12:36:04;;;;;;;7.63;2.58;;;6.70;72.00;;;;;;5074354;28;20036;-66
2023/03/08 12:38:33;;;;;;;4.10;2.78;;;6.60;71.70;;;;;;5078838;28;20032;-65
2023/03/08 12:41:00;;;;;;;3.83;2.67;;;6.60;70.60;;;;;;5077838;28;20072;-64
2023/03/08 12:43:26;;;;;;;5.28;2.97;;;6.70;71.80;;;;;;5081703;28;20109;-64
2023/03/08 12:46:06;;;;;;;3.83;2.55;;;6.70;71.90;;;;;;5078156;28;20028;-64
2023/03/08 12:48:40;;;;;;;3.17;2.60;;;6.80;71.40;;;;;;5076326;28;20040;-63
2023/03/08 12:51:12;;;;;;;5.00;2.78;;;6.90;72.10;;;;;;5089936;28;20023;-64
2023/03/08 12:53:40;;;;;;;4.32;2.53;;;6.90;71.20;;;;;;5079341;28;20024;-64
2023/03/08 12:56:09;;;;;;;4.43;2.75;;;6.80;70.40;;;;;;5078984;28;20024;-64
2023/03/08 12:58:50;;;;;;;3.97;2.75;;;6.70;71.70;;;;;;5095904;27;20043;-64
2023/03/08 13:01:28;;;;;;;4.90;2.80;;;6.70;72.40;;;;;;5076388;28;20047;-63
2023/03/08 13:03:55;;;;;;;5.28;2.88;;;6.60;72.40;;;;;;5086845;28;20596;-64
2023/03/08 13:06:26;;;;;;;5.70;3.10;;;6.60;73.90;;;;;;5078798;28;20028;-64
2023/03/08 13:09:33;;;;;;;3.97;2.40;;;6.60;75.00;;;;;;5079361;28;20024;-64
2023/03/08 13:12:05;;;;;;;4.63;2.83;;;6.80;75.80;;;;;;5076464;28;20087;-64